Time;durP1;ratioP1;P1;durP2;ratioP2;P2;SDS_P1;SDS_P2;PMS_P1;PMS_P2;Temp;Humidity;BMP_temperature;BMP_pressure;BME280_temperature;BME280_humidity;BME280_pressure;Samples;Min_cycle;Max_cycle;Signal;HPM_P1;HPM_P2
2024/02/18 00:00:51;;;;;;;4.88;2.15;;;;;;;;;;4901385;29;20048;-89
2024/02/18 00:03:21;;;;;;;5.32;1.80;;;;;;;;;;4899939;29;20060;-87
2024/02/18 00:05:52;;;;;;;6.28;1.73;;;;;;;;;;4901367;29;20055;-86
2024/02/18 00:08:22;;;;;;;5.80;1.50;;;;;;;;;;4901158;29;20052;-86
2024/02/18 00:10:52;;;;;;;5.70;1.75;;;;;;;;;;4898985;29;20056;-87
2024/02/18 00:13:22;;;;;;;4.85;1.80;;;;;;;;;;4899526;29;20063;-90
2024/02/18 00:15:53;;;;;;;3.95;1.75;;;;;;;;;;4884535;29;20072;-86
2024/02/18 00:18:24;;;;;;;3.72;1.42;;;;;;;;;;4900009;29;20051;-86
2024/02/18 00:20:56;;;;;;;6.45;1.55;;;;;;;;;;4900512;29;20049;-85
2024/02/18 00:23:27;;;;;;;5.55;2.03;;;;;;;;;;4900156;29;20048;-85
2024/02/18 00:25:57;;;;;;;6.25;2.15;;;;;;;;;;4900880;29;20047;-87
2024/02/18 00:28:32;;;;;;;5.18;1.85;;;;;;;;;;4899939;29;20049;-87
2024/02/18 00:31:02;;;;;;;7.38;2.03;;;;;;;;;;4899813;29;20048;-85
2024/02/18 00:33:32;;;;;;;7.38;1.98;;;;;;;;;;4884633;29;20071;-86
2024/02/18 00:36:03;;;;;;;4.95;1.70;;;;;;;;;;4899558;29;20044;-85
2024/02/18 00:38:34;;;;;;;6.60;2.00;;;;;;;;;;4899422;29;20080;-87
2024/02/18 00:41:07;;;;;;;5.28;1.52;;;;;;;;;;4901018;29;20408;-85
2024/02/18 00:43:37;;;;;;;4.30;1.55;;;;;;;;;;4900918;29;20045;-84
2024/02/18 00:46:07;;;;;;;3.13;1.63;;;;;;;;;;4899595;29;20065;-87
2024/02/18 00:48:57;;;;;;;6.50;1.52;;;;;;;;;;4897060;29;20053;-86
2024/02/18 00:51:28;;;;;;;4.68;1.52;;;;;;;;;;4900134;29;20040;-86
2024/02/18 00:53:59;;;;;;;8.25;2.00;;;;;;;;;;4898273;29;20059;-89
2024/02/18 00:56:31;;;;;;;6.18;1.63;;;;;;;;;;4898399;29;20068;-86
2024/02/18 00:59:05;;;;;;;9.00;1.95;;;;;;;;;;4899186;29;20059;-87
2024/02/18 01:01:35;;;;;;;7.60;1.80;;;;;;;;;;4899918;29;20056;-86
2024/02/18 01:04:06;;;;;;;4.30;1.80;;;;;;;;;;4909805;29;20060;-86
2024/02/18 01:06:37;;;;;;;8.05;1.88;;;;;;;;;;4899647;29;20453;-86
2024/02/18 01:09:09;;;;;;;5.28;1.55;;;;;;;;;;4898258;29;20408;-85
2024/02/18 01:11:39;;;;;;;7.45;1.95;;;;;;;;;;4898349;29;20045;-88
2024/02/18 01:14:09;;;;;;;6.18;2.22;;;;;;;;;;4899206;29;20500;-86
2024/02/18 01:16:40;;;;;;;5.15;1.60;;;;;;;;;;4897734;29;20052;-86
2024/02/18 01:19:11;;;;;;;5.22;1.90;;;;;;;;;;4898914;29;20063;-85
2024/02/18 01:21:41;;;;;;;6.60;1.95;;;;;;;;;;4898789;29;20044;-85
2024/02/18 01:24:12;;;;;;;5.93;1.90;;;;;;;;;;4898158;29;20059;-85
2024/02/18 01:26:42;;;;;;;8.45;2.13;;;;;;;;;;4897134;29;20060;-85
2024/02/18 01:29:17;;;;;;;3.67;1.73;;;;;;;;;;4898899;29;20051;-86
2024/02/18 01:31:47;;;;;;;4.55;1.80;;;;;;;;;;4898908;29;20524;-83
2024/02/18 01:34:18;;;;;;;8.10;2.00;;;;;;;;;;4888607;29;20053;-83
2024/02/18 01:37:28;;;;;;;5.18;1.90;;;;;;;;;;4898001;29;20507;-86
2024/02/18 01:40:18;;;;;;;10.07;2.28;;;;;;;;;;4897215;29;20067;-85
2024/02/18 01:42:47;;;;;;;7.38;2.00;;;;;;;;;;4898649;29;20049;-89
2024/02/18 01:45:17;;;;;;;6.50;1.95;;;;;;;;;;4896653;29;20399;-86
2024/02/18 01:47:48;;;;;;;9.77;2.35;;;;;;;;;;4898879;29;20075;-87
2024/02/18 01:50:18;;;;;;;4.43;2.22;;;;;;;;;;4896493;29;20055;-85
2024/02/18 01:52:50;;;;;;;9.90;1.92;;;;;;;;;;4898554;29;20044;-85
2024/02/18 01:55:23;;;;;;;9.23;2.20;;;;;;;;;;4898436;29;20048;-87
2024/02/18 01:57:58;;;;;;;11.45;2.85;;;;;;;;;;4897900;29;20048;-87
2024/02/18 02:00:28;;;;;;;6.65;2.00;;;;;;;;;;4898164;29;20057;-86
2024/02/18 02:02:59;;;;;;;6.05;1.98;;;;;;;;;;4903999;29;20055;-88
2024/02/18 02:05:31;;;;;;;9.93;2.60;;;;;;;;;;4909436;29;20055;-90
2024/02/18 02:08:04;;;;;;;6.40;2.42;;;;;;;;;;4903336;29;20052;-89
2024/02/18 02:10:34;;;;;;;;;;;;;;;;;;4900142;29;20529;-89
2024/02/18 02:13:07;;;;;;;5.65;2.40;;;;;;;;;;4918109;29;19982;-86
2024/02/18 02:15:38;;;;;;;11.43;2.50;;;;;;;;;;4900954;29;20063;-88
2024/02/18 02:18:09;;;;;;;6.05;2.47;;;;;;;;;;4918746;29;20043;-89
2024/02/18 02:20:39;;;;;;;10.18;2.67;;;;;;;;;;4901935;29;20048;-89
2024/02/18 02:23:11;;;;;;;7.55;2.80;;;;;;;;;;4885325;29;20515;-88
2024/02/18 02:25:43;;;;;;;8.85;2.60;;;;;;;;;;4901805;29;20062;-87
2024/02/18 02:28:21;;;;;;;10.80;2.70;;;;;;;;;;4900693;29;20075;-89
2024/02/18 02:30:52;;;;;;;;;;;;;;;;;;4902504;29;20055;-86
2024/02/18 02:33:23;;;;;;;8.43;2.53;;;;;;;;;;4899827;29;19926;-88
2024/02/18 02:35:54;;;;;;;8.43;2.70;;;;;;;;;;4918448;29;20063;-88
2024/02/18 02:38:25;;;;;;;8.68;3.00;;;;;;;;;;4917853;29;20044;-87
2024/02/18 02:40:55;;;;;;;5.43;2.45;;;;;;;;;;4900403;29;20063;-88
2024/02/18 02:43:26;;;;;;;7.93;2.58;;;;;;;;;;4900085;29;20052;-88
2024/02/18 02:45:59;;;;;;;8.15;2.63;;;;;;;;;;4900457;29;20478;-88
2024/02/18 02:48:30;;;;;;;7.57;2.40;;;;;;;;;;4901228;29;20044;-87
2024/02/18 02:51:01;;;;;;;6.05;2.40;;;;;;;;;;4900103;29;20052;-88
2024/02/18 02:53:33;;;;;;;16.38;2.70;;;;;;;;;;4917728;29;20044;-88
2024/02/18 02:56:05;;;;;;;9.23;2.72;;;;;;;;;;4901488;29;20055;-90
2024/02/18 02:58:35;;;;;;;9.48;3.08;;;;;;;;;;4884931;29;20044;-87
2024/02/18 03:01:06;;;;;;;8.90;3.13;;;;;;;;;;4900861;29;20506;-87
2024/02/18 03:03:38;;;;;;;10.70;3.33;;;;;;;;;;4899771;29;20423;-86
2024/02/18 03:06:08;;;;;;;7.40;2.83;;;;;;;;;;4901040;29;20072;-88
2024/02/18 03:08:43;;;;;;;5.28;2.50;;;;;;;;;;4900359;29;20063;-88
2024/02/18 03:11:13;;;;;;;13.80;3.45;;;;;;;;;;4901065;29;20055;-88
2024/02/18 03:13:44;;;;;;;8.75;2.92;;;;;;;;;;4900215;29;20407;-88
2024/02/18 03:16:14;;;;;;;7.47;2.63;;;;;;;;;;4899943;29;20139;-88
2024/02/18 03:18:45;;;;;;;7.55;3.05;;;;;;;;;;4884928;29;20052;-86
2024/02/18 03:21:18;;;;;;;6.28;3.22;;;;;;;;;;4885861;29;20075;-89
2024/02/18 03:23:49;;;;;;;8.90;3.47;;;;;;;;;;4884872;29;20066;-90
2024/02/18 03:26:19;;;;;;;8.30;3.90;;;;;;;;;;4884114;29;20052;-87
2024/02/18 03:28:51;;;;;;;8.18;3.65;;;;;;;;;;4899426;29;20055;-89
2024/02/18 03:31:22;;;;;;;15.93;3.85;;;;;;;;;;4900515;29;20048;-88
2024/02/18 03:33:52;;;;;;;10.65;3.63;;;;;;;;;;4887611;29;20056;-87
2024/02/18 03:36:23;;;;;;;9.10;4.30;;;;;;;;;;4881711;29;20052;-87
2024/02/18 03:38:53;;;;;;;12.13;4.32;;;;;;;;;;4881942;29;20056;-88
2024/02/18 03:41:26;;;;;;;8.60;3.97;;;;;;;;;;4898425;29;20049;-88
2024/02/18 03:43:57;;;;;;;11.05;4.25;;;;;;;;;;4897972;29;20044;-87
2024/02/18 03:46:27;;;;;;;7.57;3.33;;;;;;;;;;4896647;29;20385;-88
2024/02/18 03:48:57;;;;;;;9.30;7.05;;;;;;;;;;4881021;29;20056;-89
2024/02/18 03:51:27;;;;;;;12.57;5.15;;;;;;;;;;4865736;29;20411;-87
2024/02/18 03:53:57;;;;;;;12.55;4.03;;;;;;;;;;4896489;29;20053;-87
2024/02/18 03:56:32;;;;;;;7.78;3.78;;;;;;;;;;4896207;29;20056;-89
2024/02/18 03:59:08;;;;;;;14.15;3.83;;;;;;;;;;4897842;29;20052;-87
2024/02/18 04:01:38;;;;;;;9.10;4.15;;;;;;;;;;4897842;29;20064;-88
2024/02/18 04:04:08;;;;;;;6.40;3.22;;;;;;;;;;4897238;29;20059;-89
2024/02/18 04:06:40;;;;;;;10.90;2.88;;;;;;;;;;4865948;29;20053;-90
2024/02/18 04:09:12;;;;;;;10.50;2.97;;;;;;;;;;4896611;29;20413;-87
2024/02/18 04:11:42;;;;;;;13.82;3.55;;;;;;;;;;4897955;29;20049;-88
2024/02/18 04:14:13;;;;;;;9.68;2.90;;;;;;;;;;4881362;29;20507;-86
2024/02/18 04:16:45;;;;;;;6.65;2.70;;;;;;;;;;4882784;29;20064;-88
2024/02/18 04:19:17;;;;;;;9.27;3.30;;;;;;;;;;4899124;29;20052;-90
2024/02/18 04:21:48;;;;;;;10.77;3.80;;;;;;;;;;4899706;29;20041;-87
2024/02/18 04:24:17;;;;;;;6.93;3.17;;;;;;;;;;4898428;29;20045;-88
2024/02/18 04:26:48;;;;;;;7.40;2.85;;;;;;;;;;4898425;29;20064;-87
2024/02/18 04:29:17;;;;;;;6.35;2.85;;;;;;;;;;4885162;29;20510;-88
2024/02/18 04:31:49;;;;;;;10.30;3.20;;;;;;;;;;4901260;29;20507;-87
2024/02/18 04:34:20;;;;;;;7.35;3.17;;;;;;;;;;4884556;29;20496;-87
2024/02/18 04:36:51;;;;;;;6.55;2.90;;;;;;;;;;4900506;29;20126;-88
2024/02/18 04:39:21;;;;;;;10.73;2.92;;;;;;;;;;4901082;29;20397;-90
2024/02/18 04:41:52;;;;;;;5.47;3.05;;;;;;;;;;4900629;29;20063;-87
2024/02/18 04:44:46;;;;;;;6.78;3.10;;;;;;;;;;4901519;29;20071;-87
2024/02/18 04:47:16;;;;;;;7.55;3.13;;;;;;;;;;4899528;29;20060;-88
2024/02/18 04:49:46;;;;;;;6.78;3.10;;;;;;;;;;4900985;29;20036;-87
2024/02/18 04:52:18;;;;;;;5.38;2.72;;;;;;;;;;4901385;29;20044;-87
2024/02/18 04:54:50;;;;;;;10.30;2.78;;;;;;;;;;4899565;29;20412;-88
2024/02/18 04:57:20;;;;;;;16.25;2.55;;;;;;;;;;4900168;29;20083;-88
2024/02/18 04:59:50;;;;;;;7.80;2.45;;;;;;;;;;4899036;29;20056;-90
2024/02/18 05:02:20;;;;;;;8.35;2.22;;;;;;;;;;4884921;29;20044;-87
2024/02/18 05:04:52;;;;;;;5.32;2.40;;;;;;;;;;4885709;29;20064;-88
2024/02/18 05:07:23;;;;;;;5.63;2.42;;;;;;;;;;4900433;29;20083;-87
2024/02/18 05:09:53;;;;;;;10.68;2.35;;;;;;;;;;4884948;29;20056;-89
2024/02/18 05:12:24;;;;;;;8.80;2.03;;;;;;;;;;4889790;29;20045;-87
2024/02/18 05:14:56;;;;;;;8.98;2.60;;;;;;;;;;4871737;29;20064;-87
2024/02/18 05:17:27;;;;;;;5.20;2.53;;;;;;;;;;4883506;29;20049;-90
2024/02/18 05:19:59;;;;;;;7.05;2.88;;;;;;;;;;4898883;29;20049;-89
2024/02/18 05:22:29;;;;;;;5.97;2.85;;;;;;;;;;4868598;29;20056;-88
2024/02/18 05:25:03;;;;;;;12.65;2.80;;;;;;;;;;4899091;29;20142;-87
2024/02/18 05:27:34;;;;;;;10.90;2.85;;;;;;;;;;4884337;29;20058;-89
2024/02/18 05:30:05;;;;;;;8.15;2.63;;;;;;;;;;4883953;29;20060;-88
2024/02/18 05:32:36;;;;;;;6.28;2.85;;;;;;;;;;4899645;29;20392;-85
2024/02/18 05:35:06;;;;;;;5.68;2.60;;;;;;;;;;4883130;29;20068;-88
2024/02/18 05:37:41;;;;;;;6.55;2.80;;;;;;;;;;4900914;29;20056;-87
2024/02/18 05:40:12;;;;;;;;;;;;;;;;;;4903930;29;20392;-88
2024/02/18 05:42:42;;;;;;;9.13;2.40;;;;;;;;;;4901050;29;19947;-89
2024/02/18 05:45:20;;;;;;;9.80;2.92;;;;;;;;;;4899050;29;20444;-88
2024/02/18 05:47:51;;;;;;;7.82;2.90;;;;;;;;;;4883484;29;20052;-86
2024/02/18 05:50:21;;;;;;;8.23;2.95;;;;;;;;;;4883006;29;20053;-88
2024/02/18 05:52:53;;;;;;;7.63;2.95;;;;;;;;;;4898922;29;20125;-86
2024/02/18 05:55:24;;;;;;;7.53;2.67;;;;;;;;;;4899990;29;20448;-87
2024/02/18 05:57:56;;;;;;;7.40;2.38;;;;;;;;;;4898104;29;20064;-88
2024/02/18 06:00:27;;;;;;;10.30;2.78;;;;;;;;;;4882344;29;20064;-88
2024/02/18 06:02:58;;;;;;;9.23;2.72;;;;;;;;;;4899981;29;20057;-87
2024/02/18 06:05:28;;;;;;;5.00;2.28;;;;;;;;;;4899569;29;20380;-87
2024/02/18 06:08:00;;;;;;;4.88;2.22;;;;;;;;;;4882052;29;20055;-87
2024/02/18 06:10:33;;;;;;;6.40;3.22;;;;;;;;;;4883031;29;20055;-89
2024/02/18 06:13:03;;;;;;;4.57;2.25;;;;;;;;;;4897481;29;20056;-88
2024/02/18 06:15:34;;;;;;;11.90;2.60;;;;;;;;;;4883518;29;20499;-87
2024/02/18 06:18:05;;;;;;;8.10;2.83;;;;;;;;;;4899221;29;20045;-88
2024/02/18 06:20:36;;;;;;;15.23;2.67;;;;;;;;;;4882166;29;20056;-87
2024/02/18 06:23:07;;;;;;;5.35;2.95;;;;;;;;;;4899459;29;20053;-87
2024/02/18 06:25:38;;;;;;;8.68;2.83;;;;;;;;;;4897692;29;20480;-87
2024/02/18 06:28:10;;;;;;;4.82;2.40;;;;;;;;;;4898218;29;20500;-87
2024/02/18 06:30:41;;;;;;;5.53;2.83;;;;;;;;;;4897085;29;20049;-85
2024/02/18 06:33:11;;;;;;;6.53;2.72;;;;;;;;;;4881384;29;20116;-87
2024/02/18 06:35:44;;;;;;;6.88;2.70;;;;;;;;;;4882869;29;20052;-87
2024/02/18 06:38:16;;;;;;;7.03;2.78;;;;;;;;;;4898799;29;20067;-87
2024/02/18 06:40:47;;;;;;;6.18;3.00;;;;;;;;;;4882910;29;20048;-87
2024/02/18 06:43:17;;;;;;;8.02;2.80;;;;;;;;;;4898518;29;20060;-87
2024/02/18 06:45:47;;;;;;;10.63;3.28;;;;;;;;;;4899092;29;20052;-86
2024/02/18 06:48:18;;;;;;;7.00;3.30;;;;;;;;;;4897658;29;20052;-87
2024/02/18 06:50:48;;;;;;;8.10;3.63;;;;;;;;;;4898280;29;20041;-88
2024/02/18 06:53:18;;;;;;;6.93;3.50;;;;;;;;;;4881790;29;20045;-88
2024/02/18 06:55:50;;;;;;;6.72;3.53;;;;;;;;;;4882472;29;20053;-88
2024/02/18 06:58:21;;;;;;;9.20;3.72;;;;;;;;;;4881750;29;20048;-87
2024/02/18 07:00:52;;;;;;;7.22;3.75;;;;;;;;;;4898045;29;20397;-86
2024/02/18 07:03:23;;;;;;;8.95;3.90;;;;;;;;;;4881851;29;20045;-87
2024/02/18 07:05:53;;;;;;;8.88;3.65;;;;;;;;;;4896863;29;20060;-86
2024/02/18 07:08:23;;;;;;;8.70;3.40;;;;;;;;;;4898553;29;20380;-86
2024/02/18 07:10:54;;;;;;;9.07;3.83;;;;;;;;;;4897087;29;20448;-88
2024/02/18 07:13:25;;;;;;;9.05;3.80;;;;;;;;;;4880837;29;20148;-86
2024/02/18 07:15:56;;;;;;;8.80;4.03;;;;;;;;;;4897832;29;20051;-86
2024/02/18 07:18:28;;;;;;;8.38;3.22;;;;;;;;;;4898242;29;20044;-86
2024/02/18 07:20:58;;;;;;;12.18;3.55;;;;;;;;;;4881848;29;20041;-86
2024/02/18 07:23:28;;;;;;;8.75;3.80;;;;;;;;;;4865141;29;20057;-86
2024/02/18 07:26:00;;;;;;;14.32;3.13;;;;;;;;;;4880913;29;20486;-86
2024/02/18 07:28:31;;;;;;;10.02;3.22;;;;;;;;;;4881266;29;20052;-86
2024/02/18 07:31:02;;;;;;;10.43;3.20;;;;;;;;;;4881721;29;20044;-86
2024/02/18 07:33:33;;;;;;;12.10;3.08;;;;;;;;;;4896407;29;20056;-85
2024/02/18 07:36:04;;;;;;;8.68;2.80;;;;;;;;;;4897306;29;20049;-86
2024/02/18 07:38:35;;;;;;;9.68;3.30;;;;;;;;;;4881354;29;20048;-86
2024/02/18 07:41:05;;;;;;;12.73;3.30;;;;;;;;;;4880811;29;20060;-86
2024/02/18 07:43:36;;;;;;;8.38;2.95;;;;;;;;;;4881883;29;20056;-86
2024/02/18 07:46:06;;;;;;;5.47;2.60;;;;;;;;;;4881559;29;20056;-86
2024/02/18 07:48:37;;;;;;;9.27;2.60;;;;;;;;;;4895339;29;20074;-86
2024/02/18 07:51:09;;;;;;;7.72;2.50;;;;;;;;;;4897717;29;20041;-86
2024/02/18 07:53:39;;;;;;;8.45;3.50;;;;;;;;;;4898004;29;20053;-85
2024/02/18 07:56:09;;;;;;;8.40;2.55;;;;;;;;;;4881731;29;20052;-86
2024/02/18 07:58:39;;;;;;;9.75;2.58;;;;;;;;;;4896545;29;20056;-86
2024/02/18 08:01:09;;;;;;;7.55;2.90;;;;;;;;;;4882181;29;20061;-86
2024/02/18 08:03:40;;;;;;;7.15;2.97;;;;;;;;;;4899833;29;20056;-87
2024/02/18 08:06:10;;;;;;;6.22;3.00;;;;;;;;;;4901786;29;20075;-87
2024/02/18 08:08:42;;;;;;;11.38;3.35;;;;;;;;;;4900312;29;20044;-86
2024/02/18 08:11:13;;;;;;;8.90;2.92;;;;;;;;;;4885157;29;20044;-86
2024/02/18 08:13:43;;;;;;;7.30;2.70;;;;;;;;;;4869192;29;20076;-88
2024/02/18 08:16:14;;;;;;;5.72;3.00;;;;;;;;;;4900384;29;20075;-86
2024/02/18 08:18:45;;;;;;;7.45;3.08;;;;;;;;;;4901564;29;20067;-87
2024/02/18 08:21:16;;;;;;;7.00;2.78;;;;;;;;;;4899046;29;20045;-86
2024/02/18 08:23:53;;;;;;;6.78;2.72;;;;;;;;;;4900099;29;20052;-85
2024/02/18 08:26:27;;;;;;;10.13;2.97;;;;;;;;;;4900938;29;20056;-86
2024/02/18 08:28:57;;;;;;;7.45;2.92;;;;;;;;;;4899413;29;20045;-85
2024/02/18 08:31:28;;;;;;;7.68;3.20;;;;;;;;;;4868402;29;20056;-86
2024/02/18 08:34:00;;;;;;;10.57;3.38;;;;;;;;;;4899558;29;20056;-86
2024/02/18 08:36:31;;;;;;;12.35;3.60;;;;;;;;;;4901376;29;20048;-86
2024/02/18 08:39:02;;;;;;;9.32;3.33;;;;;;;;;;4898848;29;20512;-85
2024/02/18 08:41:33;;;;;;;8.32;3.20;;;;;;;;;;4884795;29;20400;-86
2024/02/18 08:44:04;;;;;;;7.90;3.15;;;;;;;;;;4901206;29;20350;-86
2024/02/18 08:46:34;;;;;;;12.23;2.85;;;;;;;;;;4900514;29;20049;-85
2024/02/18 08:49:06;;;;;;;6.28;2.92;;;;;;;;;;4882932;29;20057;-85
2024/02/18 08:51:39;;;;;;;8.13;3.00;;;;;;;;;;4900989;29;20049;-86
2024/02/18 08:54:10;;;;;;;6.07;2.67;;;;;;;;;;4883153;29;20167;-85
2024/02/18 08:56:40;;;;;;;9.18;2.85;;;;;;;;;;4900810;29;20049;-85
2024/02/18 08:59:12;;;;;;;10.38;2.95;;;;;;;;;;4899362;29;20052;-85
2024/02/18 09:01:43;;;;;;;9.98;2.97;;;;;;;;;;4901786;29;20415;-86
2024/02/18 09:04:16;;;;;;;8.57;3.22;;;;;;;;;;4902210;29;20059;-86
2024/02/18 09:06:47;;;;;;;12.65;3.28;;;;;;;;;;4902940;29;20063;-86
2024/02/18 09:09:17;;;;;;;6.38;3.30;;;;;;;;;;4901721;29;20059;-86
2024/02/18 09:11:48;;;;;;;8.30;3.25;;;;;;;;;;4883813;29;20060;-85
2024/02/18 09:14:19;;;;;;;8.32;3.55;;;;;;;;;;4886353;29;20057;-85
2024/02/18 09:16:50;;;;;;;5.68;3.03;;;;;;;;;;4898042;29;20068;-85
2024/02/18 09:19:20;;;;;;;8.73;3.28;;;;;;;;;;4897143;29;20055;-85
2024/02/18 09:21:50;;;;;;;7.30;2.97;;;;;;;;;;4893617;29;20049;-86
2024/02/18 09:24:21;;;;;;;6.85;3.28;;;;;;;;;;4898078;29;20067;-87
2024/02/18 09:26:51;;;;;;;7.72;3.10;;;;;;;;;;4887293;29;20044;-87
2024/02/18 09:29:23;;;;;;;6.18;3.05;;;;;;;;;;4900035;29;20067;-85
2024/02/18 09:31:53;;;;;;;6.60;3.45;;;;;;;;;;4900012;29;20059;-86
2024/02/18 09:34:24;;;;;;;7.78;2.92;;;;;;;;;;4899608;29;20130;-86
2024/02/18 09:36:57;;;;;;;7.90;3.20;;;;;;;;;;4897880;29;20057;-86
2024/02/18 09:39:26;;;;;;;;;;;;;;;;;;4901785;29;20511;-86
2024/02/18 09:42:00;;;;;;;8.40;3.20;;;;;;;;;;4900662;29;20342;-87
2024/02/18 09:44:35;;;;;;;6.97;3.03;;;;;;;;;;4918718;29;20055;-87
2024/02/18 09:47:07;;;;;;;4.93;2.83;;;;;;;;;;4901818;29;20403;-86
2024/02/18 09:49:39;;;;;;;7.78;2.97;;;;;;;;;;4901648;29;20056;-85
2024/02/18 09:52:13;;;;;;;5.03;2.55;;;;;;;;;;4901519;29;20056;-87
2024/02/18 09:54:44;;;;;;;7.68;2.65;;;;;;;;;;4891959;29;20440;-86
2024/02/18 09:57:14;;;;;;;7.32;2.95;;;;;;;;;;4902363;29;20041;-86
2024/02/18 09:59:45;;;;;;;7.38;2.92;;;;;;;;;;4899201;29;20138;-87
2024/02/18 10:02:19;;;;;;;7.22;2.75;;;;;;;;;;4897897;29;20052;-85
2024/02/18 10:04:50;;;;;;;13.07;3.10;;;;;;;;;;4903443;29;20047;-85
2024/02/18 10:07:20;;;;;;;6.57;3.22;;;;;;;;;;4898348;29;20056;-85
2024/02/18 10:09:51;;;;;;;5.90;3.03;;;;;;;;;;4897828;29;20428;-86
2024/02/18 10:12:23;;;;;;;8.48;2.80;;;;;;;;;;4898396;29;20051;-84
2024/02/18 10:15:52;;;;;;;10.50;3.35;;;;;;;;;;4897942;29;20059;-86
2024/02/18 10:18:25;;;;;;;7.15;2.85;;;;;;;;;;4901270;29;20041;-85
2024/02/18 10:20:55;;;;;;;5.75;2.65;;;;;;;;;;4900712;29;20052;-92
2024/02/18 10:23:26;;;;;;;6.13;2.75;;;;;;;;;;4899377;29;20506;-84
2024/02/18 10:25:59;;;;;;;7.07;2.97;;;;;;;;;;4901807;29;20056;-84
2024/02/18 10:28:31;;;;;;;4.88;2.20;;;;;;;;;;4914902;29;20059;-86
2024/02/18 10:31:04;;;;;;;4.47;2.00;;;;;;;;;;4911298;29;20048;-86
2024/02/18 10:33:35;;;;;;;5.03;2.45;;;;;;;;;;4909948;29;20056;-85
2024/02/18 10:36:14;;;;;;;4.55;1.92;;;;;;;;;;4897648;29;20053;-85
2024/02/18 10:38:52;;;;;;;3.90;2.33;;;;;;;;;;4897016;29;20048;-85
2024/02/18 10:41:52;;;;;;;5.47;1.90;;;;;;;;;;4896566;29;20061;-88
2024/02/18 10:44:25;;;;;;;5.90;1.95;;;;;;;;;;4892191;29;20408;-90
2024/02/18 10:46:57;;;;;;;3.78;1.42;;;;;;;;;;4899037;29;20051;-85
2024/02/18 10:49:38;;;;;;;3.47;1.48;;;;;;;;;;4897268;29;20048;-85
2024/02/18 10:52:12;;;;;;;3.83;1.27;;;;;;;;;;4881020;29;20068;-84
2024/02/18 10:55:12;;;;;;;3.78;1.50;;;;;;;;;;4895998;29;20053;-86
2024/02/18 10:58:02;;;;;;;2.58;1.30;;;;;;;;;;4893134;29;20087;-87
2024/02/18 11:00:39;;;;;;;3.22;1.30;;;;;;;;;;4897267;29;20056;-84
2024/02/18 11:03:36;;;;;;;3.63;1.25;;;;;;;;;;4895675;29;20064;-83
2024/02/18 11:06:08;;;;;;;4.85;1.42;;;;;;;;;;4896989;29;20060;-83
2024/02/18 11:08:40;;;;;;;3.28;1.27;;;;;;;;;;4913994;29;20048;-83
2024/02/18 11:11:12;;;;;;;2.28;1.40;;;;;;;;;;4916152;29;20056;-88
2024/02/18 11:13:46;;;;;;;3.22;1.40;;;;;;;;;;4916146;29;20381;-82
2024/02/18 11:16:19;;;;;;;4.22;1.33;;;;;;;;;;4916173;29;20059;-84
2024/02/18 11:18:50;;;;;;;1.92;1.20;;;;;;;;;;4915136;29;20052;-82
2024/02/18 11:21:21;;;;;;;3.10;1.48;;;;;;;;;;4914660;29;20056;-84
2024/02/18 11:23:55;;;;;;;2.15;1.10;;;;;;;;;;4914709;29;20414;-81
2024/02/18 11:26:26;;;;;;;2.85;1.30;;;;;;;;;;4916164;29;20055;-86
2024/02/18 11:29:04;;;;;;;3.05;1.50;;;;;;;;;;4915938;29;20060;-82
2024/02/18 11:31:34;;;;;;;;;;;;;;;;;;4915057;29;20052;-82
2024/02/18 11:34:06;;;;;;;3.13;1.27;;;;;;;;;;4914094;29;19923;-84
2024/02/18 11:36:36;;;;;;;5.22;1.40;;;;;;;;;;4915320;29;20051;-84
2024/02/18 11:39:07;;;;;;;3.55;1.58;;;;;;;;;;4915522;29;20055;-82
2024/02/18 11:41:38;;;;;;;2.75;1.20;;;;;;;;;;4914757;29;20075;-85
2024/02/18 11:44:16;;;;;;;4.93;1.52;;;;;;;;;;4915044;29;20052;-82
2024/02/18 11:46:49;;;;;;;4.22;1.23;;;;;;;;;;4917136;29;20048;-82
2024/02/18 11:49:21;;;;;;;3.08;1.25;;;;;;;;;;4916805;29;20056;-84
2024/02/18 11:51:52;;;;;;;4.88;1.52;;;;;;;;;;4916772;29;20047;-82
2024/02/18 11:54:22;;;;;;;2.75;1.45;;;;;;;;;;4916860;29;20395;-81
2024/02/18 11:56:54;;;;;;;6.18;1.30;;;;;;;;;;4916663;29;20052;-84
2024/02/18 11:59:25;;;;;;;3.25;1.27;;;;;;;;;;4916939;29;20052;-84
2024/02/18 12:01:56;;;;;;;3.95;1.38;;;;;;;;;;4916575;29;20060;-82
2024/02/18 12:04:27;;;;;;;3.30;1.10;;;;;;;;;;4914746;29;20048;-82
2024/02/18 12:06:59;;;;;;;2.67;1.45;;;;;;;;;;4916239;29;20511;-86
2024/02/18 12:09:29;;;;;;;3.63;1.40;;;;;;;;;;4914848;29;20052;-84
2024/02/18 12:12:00;;;;;;;4.90;1.63;;;;;;;;;;4914908;29;20063;-83
2024/02/18 12:14:30;;;;;;;2.35;1.05;;;;;;;;;;4915605;29;20060;-81
2024/02/18 12:17:01;;;;;;;2.80;1.48;;;;;;;;;;4916523;29;20052;-85
2024/02/18 12:19:32;;;;;;;2.20;1.20;;;;;;;;;;4914637;29;20055;-83
2024/02/18 12:22:04;;;;;;;4.50;1.33;;;;;;;;;;4914667;29;20071;-88
2024/02/18 12:24:34;;;;;;;;;;;;;;;;;;4917093;29;20372;-84
2024/02/18 12:27:04;;;;;;;2.70;1.40;;;;;;;;;;4916316;29;19930;-85
2024/02/18 12:29:34;;;;;;;1.88;1.17;;;;;;;;;;4916052;29;20048;-87
2024/02/18 12:32:04;;;;;;;2.80;1.48;;;;;;;;;;4916077;29;20048;-85
2024/02/18 12:34:36;;;;;;;3.08;1.48;;;;;;;;;;4914308;29;20089;-86
2024/02/18 12:37:08;;;;;;;2.40;1.40;;;;;;;;;;4916392;29;20048;-86
2024/02/18 12:39:58;;;;;;;4.22;1.90;;;;;;;;;;4916028;29;20048;-86
2024/02/18 12:42:30;;;;;;;4.55;1.40;;;;;;;;;;4914873;29;20051;-86
2024/02/18 12:45:02;;;;;;;2.80;1.17;;;;;;;;;;4914605;29;20052;-85
2024/02/18 12:47:42;;;;;;;5.25;1.80;;;;;;;;;;4917025;29;20048;-85
2024/02/18 12:50:13;;;;;;;3.58;1.38;;;;;;;;;;4919445;29;20456;-87
2024/02/18 12:52:47;;;;;;;3.50;1.50;;;;;;;;;;4919739;29;20469;-85
2024/02/18 12:55:17;;;;;;;4.60;1.20;;;;;;;;;;4918714;29;20063;-87
2024/02/18 12:57:47;;;;;;;2.40;1.30;;;;;;;;;;4919777;29;20411;-86
2024/02/18 13:00:19;;;;;;;2.20;0.93;;;;;;;;;;4917695;29;20056;-87
2024/02/18 13:02:53;;;;;;;3.20;1.30;;;;;;;;;;4917989;29;20051;-84
2024/02/18 13:05:25;;;;;;;4.18;1.50;;;;;;;;;;4919260;29;20056;-85
2024/02/18 13:08:04;;;;;;;5.03;2.67;;;;;;;;;;4918349;29;20111;-85
2024/02/18 13:10:36;;;;;;;2.65;1.52;;;;;;;;;;4919537;29;20052;-85
2024/02/18 13:13:08;;;;;;;2.55;1.77;;;;;;;;;;4897471;29;20499;-85
2024/02/18 13:15:38;;;;;;;2.72;1.52;;;;;;;;;;4898932;29;20048;-86
2024/02/18 13:18:09;;;;;;;5.18;2.30;;;;;;;;;;4896884;29;20397;-87
2024/02/18 13:20:40;;;;;;;4.45;1.63;;;;;;;;;;4899760;29;20056;-86
2024/02/18 13:23:10;;;;;;;3.88;1.75;;;;;;;;;;4900216;29;20051;-88
2024/02/18 13:25:40;;;;;;;2.58;1.30;;;;;;;;;;4900070;29;20404;-90
2024/02/18 13:28:12;;;;;;;2.97;1.63;;;;;;;;;;4898411;29;20053;-86
2024/02/18 13:30:44;;;;;;;4.10;1.60;;;;;;;;;;4898208;29;20044;-86
2024/02/18 13:33:15;;;;;;;3.15;1.60;;;;;;;;;;4897725;29;20052;-87
2024/02/18 13:35:46;;;;;;;1.67;1.00;;;;;;;;;;4899531;29;20044;-87
2024/02/18 13:38:16;;;;;;;1.70;1.20;;;;;;;;;;4882249;29;20057;-86
2024/02/18 13:40:46;;;;;;;3.30;1.80;;;;;;;;;;4895059;29;20492;-85
2024/02/18 13:43:17;;;;;;;5.55;1.98;;;;;;;;;;4898899;29;20063;-86
2024/02/18 13:45:48;;;;;;;2.67;1.00;;;;;;;;;;4883186;29;20492;-88
2024/02/18 13:48:20;;;;;;;2.75;1.45;;;;;;;;;;4898735;29;20048;-86
2024/02/18 13:50:51;;;;;;;4.28;1.70;;;;;;;;;;4896907;29;20044;-84
2024/02/18 13:53:22;;;;;;;3.75;1.40;;;;;;;;;;4901619;29;20036;-87
2024/02/18 13:55:53;;;;;;;2.08;1.20;;;;;;;;;;4897814;29;20048;-93
2024/02/18 13:58:24;;;;;;;2.45;1.38;;;;;;;;;;4898468;29;20503;-87
2024/02/18 14:00:55;;;;;;;4.85;1.33;;;;;;;;;;4899736;29;20053;-87
2024/02/18 14:03:29;;;;;;;3.13;1.73;;;;;;;;;;4897376;29;20051;-89
2024/02/18 14:06:01;;;;;;;3.00;1.80;;;;;;;;;;4898870;29;20056;-94
2024/02/18 14:08:32;;;;;;;3.45;1.50;;;;;;;;;;4897858;29;20048;-85
2024/02/18 14:11:04;;;;;;;2.53;1.55;;;;;;;;;;4897022;29;20052;-86
2024/02/18 14:13:36;;;;;;;3.13;1.50;;;;;;;;;;4896134;29;20048;-87
2024/02/18 14:16:07;;;;;;;5.13;1.60;;;;;;;;;;4897224;29;20135;-87
2024/02/18 14:18:38;;;;;;;6.85;3.92;;;;;;;;;;4898142;29;20041;-88
2024/02/18 14:21:09;;;;;;;4.57;1.40;;;;;;;;;;4897032;29;20053;-87
2024/02/18 14:23:39;;;;;;;5.03;1.50;;;;;;;;;;4881029;29;20049;-86
2024/02/18 14:26:09;;;;;;;1.95;1.13;;;;;;;;;;4895501;29;20052;-88
2024/02/18 14:28:38;;;;;;;2.30;1.17;;;;;;;;;;4895339;29;20060;-87
2024/02/18 14:31:09;;;;;;;2.28;1.25;;;;;;;;;;4896938;29;20057;-89
2024/02/18 14:33:43;;;;;;;3.05;2.55;;;;;;;;;;4899726;29;20056;-85
2024/02/18 14:36:16;;;;;;;2.83;1.23;;;;;;;;;;4898754;29;20045;-87
2024/02/18 14:38:47;;;;;;;3.40;1.20;;;;;;;;;;4897744;29;20060;-87
2024/02/18 14:41:18;;;;;;;2.00;1.13;;;;;;;;;;4898338;29;20055;-84
2024/02/18 14:43:49;;;;;;;3.08;1.52;;;;;;;;;;4898018;29;20044;-86
2024/02/18 14:46:21;;;;;;;4.15;1.75;;;;;;;;;;4897403;29;20044;-90
2024/02/18 14:48:51;;;;;;;2.95;1.08;;;;;;;;;;4898069;29;20052;-87
2024/02/18 14:51:21;;;;;;;5.75;2.53;;;;;;;;;;4897512;29;20041;-87
2024/02/18 14:53:52;;;;;;;5.63;3.58;;;;;;;;;;4897603;29;20060;-91
2024/02/18 14:56:24;;;;;;;3.22;1.60;;;;;;;;;;4882699;29;20048;-91
2024/02/18 14:58:56;;;;;;;2.88;1.23;;;;;;;;;;4897864;29;20064;-90
2024/02/18 15:01:27;;;;;;;6.22;1.52;;;;;;;;;;4897313;29;20052;-89
2024/02/18 15:04:00;;;;;;;2.30;1.52;;;;;;;;;;4897075;29;20045;-92
2024/02/18 15:06:32;;;;;;;2.92;1.38;;;;;;;;;;4898596;29;20049;-90
2024/02/18 15:09:02;;;;;;;4.32;1.52;;;;;;;;;;4896325;29;20060;-88
2024/02/18 15:11:34;;;;;;;3.70;1.40;;;;;;;;;;4898345;29;20044;-90